sensor_id;sensor_type;location;lat;lon;timestamp;pressure;altitude;pressure_sealevel;temperature;humidity
46347;BME280;32057;47.830;19.046;2024-02-21T00:02:02;100986.00;;;6.58;100.00
46347;BME280;32057;47.830;19.046;2024-02-21T00:04:27;100987.78;;;6.60;100.00
46347;BME280;32057;47.830;19.046;2024-02-21T00:06:53;100974.69;;;6.56;100.00
46347;BME280;32057;47.830;19.046;2024-02-21T00:09:18;100977.56;;;6.63;100.00
46347;BME280;32057;47.830;19.046;2024-02-21T00:11:44;100982.75;;;6.63;100.00
46347;BME280;32057;47.830;19.046;2024-02-21T00:14:10;100974.03;;;6.61;100.00
46347;BME280;32057;47.830;19.046;2024-02-21T00:16:35;100979.19;;;6.61;100.00
46347;BME280;32057;47.830;19.046;2024-02-21T00:19:00;100980.97;;;6.62;100.00
46347;BME280;32057;47.830;19.046;2024-02-21T00:21:26;100975.81;;;6.62;100.00
46347;BME280;32057;47.830;19.046;2024-02-21T00:23:51;100975.66;;;6.58;100.00
46347;BME280;32057;47.830;19.046;2024-02-21T00:26:16;100965.19;;;6.55;100.00
46347;BME280;32057;47.830;19.046;2024-02-21T00:28:41;100964.34;;;6.56;100.00
46347;BME280;32057;47.830;19.046;2024-02-21T00:31:07;100959.09;;;6.55;100.00
46347;BME280;32057;47.830;19.046;2024-02-21T00:33:32;100960.00;;;6.55;100.00
46347;BME280;32057;47.830;19.046;2024-02-21T00:35:58;100957.44;;;6.55;100.00
46347;BME280;32057;47.830;19.046;2024-02-21T00:38:23;100964.50;;;6.60;100.00
46347;BME280;32057;47.830;19.046;2024-02-21T00:40:48;100963.69;;;6.61;100.00
46347;BME280;32057;47.830;19.046;2024-02-21T00:43:14;100952.63;;;6.63;100.00
46347;BME280;32057;47.830;19.046;2024-02-21T00:45:39;100949.13;;;6.63;100.00
46347;BME280;32057;47.830;19.046;2024-02-21T00:48:04;100942.31;;;6.65;100.00
46347;BME280;32057;47.830;19.046;2024-02-21T00:50:30;100934.56;;;6.65;100.00
46347;BME280;32057;47.830;19.046;2024-02-21T00:52:55;100927.63;;;6.64;100.00
46347;BME280;32057;47.830;19.046;2024-02-21T00:55:21;100925.03;;;6.64;100.00
46347;BME280;32057;47.830;19.046;2024-02-21T00:57:46;100924.78;;;6.57;100.00
46347;BME280;32057;47.830;19.046;2024-02-21T01:00:12;100933.31;;;6.56;100.00
46347;BME280;32057;47.830;19.046;2024-02-21T01:02:38;100919.59;;;6.57;100.00
46347;BME280;32057;47.830;19.046;2024-02-21T01:05:03;100917.97;;;6.60;100.00
46347;BME280;32057;47.830;19.046;2024-02-21T01:07:29;100916.34;;;6.62;100.00
46347;BME280;32057;47.830;19.046;2024-02-21T01:09:54;100915.38;;;6.60;100.00
46347;BME280;32057;47.830;19.046;2024-02-21T01:12:20;100919.03;;;6.65;100.00
46347;BME280;32057;47.830;19.046;2024-02-21T01:14:45;100914.63;;;6.62;100.00
46347;BME280;32057;47.830;19.046;2024-02-21T01:17:14;100917.38;;;6.65;100.00
46347;BME280;32057;47.830;19.046;2024-02-21T01:19:40;100920.84;;;6.66;100.00
46347;BME280;32057;47.830;19.046;2024-02-21T01:22:05;100915.31;;;6.58;100.00
46347;BME280;32057;47.830;19.046;2024-02-21T01:24:30;100911.97;;;6.61;100.00
46347;BME280;32057;47.830;19.046;2024-02-21T01:26:56;100911.25;;;6.63;100.00
46347;BME280;32057;47.830;19.046;2024-02-21T01:29:21;100913.75;;;6.62;100.00
46347;BME280;32057;47.830;19.046;2024-02-21T01:31:46;100918.66;;;6.55;100.00
46347;BME280;32057;47.830;19.046;2024-02-21T01:34:12;100926.16;;;6.51;100.00
46347;BME280;32057;47.830;19.046;2024-02-21T01:36:38;100922.03;;;6.54;100.00
46347;BME280;32057;47.830;19.046;2024-02-21T01:39:03;100919.03;;;6.45;100.00
46347;BME280;32057;47.830;19.046;2024-02-21T01:41:31;100914.06;;;6.50;100.00
46347;BME280;32057;47.830;19.046;2024-02-21T01:43:57;100914.94;;;6.50;100.00
46347;BME280;32057;47.830;19.046;2024-02-21T01:46:23;100914.94;;;6.50;100.00
46347;BME280;32057;47.830;19.046;2024-02-21T01:48:57;100908.69;;;6.45;100.00
46347;BME280;32057;47.830;19.046;2024-02-21T01:51:23;100905.44;;;6.49;100.00
46347;BME280;32057;47.830;19.046;2024-02-21T01:53:50;100900.19;;;6.48;100.00
46347;BME280;32057;47.830;19.046;2024-02-21T01:56:17;100911.28;;;6.45;100.00
46347;BME280;32057;47.830;19.046;2024-02-21T01:58:42;100904.03;;;6.38;100.00
46347;BME280;32057;47.830;19.046;2024-02-21T02:01:07;100908.34;;;6.37;100.00
46347;BME280;32057;47.830;19.046;2024-02-21T02:03:33;100910.16;;;6.40;100.00
46347;BME280;32057;47.830;19.046;2024-02-21T02:05:59;100917.94;;;6.40;100.00
46347;BME280;32057;47.830;19.046;2024-02-21T02:08:24;100922.13;;;6.38;100.00
46347;BME280;32057;47.830;19.046;2024-02-21T02:10:50;100921.03;;;6.33;100.00
46347;BME280;32057;47.830;19.046;2024-02-21T02:13:15;100919.06;;;6.27;100.00
46347;BME280;32057;47.830;19.046;2024-02-21T02:15:45;100919.88;;;6.26;100.00
46347;BME280;32057;47.830;19.046;2024-02-21T02:18:12;100932.50;;;6.20;100.00
46347;BME280;32057;47.830;19.046;2024-02-21T02:20:38;100917.88;;;6.21;100.00
46347;BME280;32057;47.830;19.046;2024-02-21T02:25:51;100924.66;;;6.18;100.00
46347;BME280;32057;47.830;19.046;2024-02-21T02:28:20;100929.03;;;6.20;100.00
46347;BME280;32057;47.830;19.046;2024-02-21T02:30:45;100925.50;;;6.17;100.00
46347;BME280;32057;47.830;19.046;2024-02-21T02:33:11;100927.03;;;6.14;100.00
46347;BME280;32057;47.830;19.046;2024-02-21T02:35:36;100929.53;;;6.12;100.00
46347;BME280;32057;47.830;19.046;2024-02-21T02:38:05;100932.13;;;6.12;100.00
46347;BME280;32057;47.830;19.046;2024-02-21T02:40:31;100928.66;;;6.12;100.00
46347;BME280;32057;47.830;19.046;2024-02-21T02:42:57;100937.22;;;6.11;100.00
46347;BME280;32057;47.830;19.046;2024-02-21T02:45:23;100933.63;;;6.07;100.00
46347;BME280;32057;47.830;19.046;2024-02-21T02:47:55;100937.50;;;5.99;100.00
46347;BME280;32057;47.830;19.046;2024-02-21T02:50:25;100928.16;;;6.01;100.00
46347;BME280;32057;47.830;19.046;2024-02-21T02:52:50;100933.00;;;5.95;100.00
46347;BME280;32057;47.830;19.046;2024-02-21T02:55:15;100932.53;;;5.86;100.00
46347;BME280;32057;47.830;19.046;2024-02-21T02:57:41;100930.75;;;5.85;100.00
46347;BME280;32057;47.830;19.046;2024-02-21T03:00:08;100928.03;;;5.82;100.00
46347;BME280;32057;47.830;19.046;2024-02-21T03:02:34;100938.28;;;5.80;100.00
46347;BME280;32057;47.830;19.046;2024-02-21T03:05:00;100938.06;;;5.75;100.00
46347;BME280;32057;47.830;19.046;2024-02-21T03:07:25;100940.19;;;5.66;100.00
46347;BME280;32057;47.830;19.046;2024-02-21T03:09:52;100941.06;;;5.67;100.00
46347;BME280;32057;47.830;19.046;2024-02-21T03:12:18;100939.88;;;5.60;100.00
46347;BME280;32057;47.830;19.046;2024-02-21T03:14:50;100948.41;;;5.59;100.00
46347;BME280;32057;47.830;19.046;2024-02-21T03:17:15;100946.56;;;5.56;100.00
46347;BME280;32057;47.830;19.046;2024-02-21T03:19:41;100950.78;;;5.54;100.00
46347;BME280;32057;47.830;19.046;2024-02-21T03:22:06;100942.63;;;5.47;100.00
46347;BME280;32057;47.830;19.046;2024-02-21T03:24:31;100947.81;;;5.47;100.00
46347;BME280;32057;47.830;19.046;2024-02-21T03:26:56;100951.13;;;5.44;100.00
46347;BME280;32057;47.830;19.046;2024-02-21T03:29:24;100944.78;;;5.37;100.00
46347;BME280;32057;47.830;19.046;2024-02-21T03:31:49;100947.41;;;5.39;100.00
46347;BME280;32057;47.830;19.046;2024-02-21T03:34:14;100951.56;;;5.35;100.00
46347;BME280;32057;47.830;19.046;2024-02-21T03:36:40;100944.47;;;5.31;100.00
46347;BME280;32057;47.830;19.046;2024-02-21T03:39:05;100949.44;;;5.28;100.00
46347;BME280;32057;47.830;19.046;2024-02-21T03:41:30;100949.88;;;5.19;100.00
46347;BME280;32057;47.830;19.046;2024-02-21T03:43:56;100945.28;;;5.14;100.00
46347;BME280;32057;47.830;19.046;2024-02-21T03:46:21;100951.22;;;5.13;100.00
46347;BME280;32057;47.830;19.046;2024-02-21T03:48:46;100953.56;;;5.08;100.00
46347;BME280;32057;47.830;19.046;2024-02-21T03:51:12;100945.59;;;5.04;100.00
46347;BME280;32057;47.830;19.046;2024-02-21T03:53:37;100954.13;;;5.03;100.00
46347;BME280;32057;47.830;19.046;2024-02-21T03:56:03;100947.91;;;4.99;100.00
46347;BME280;32057;47.830;19.046;2024-02-21T03:58:30;100944.78;;;4.88;100.00
46347;BME280;32057;47.830;19.046;2024-02-21T04:00:55;100935.75;;;4.80;100.00
46347;BME280;32057;47.830;19.046;2024-02-21T04:03:21;100943.97;;;4.73;100.00
46347;BME280;32057;47.830;19.046;2024-02-21T04:05:46;100947.34;;;4.72;100.00
46347;BME280;32057;47.830;19.046;2024-02-21T04:08:11;100943.00;;;4.71;100.00
46347;BME280;32057;47.830;19.046;2024-02-21T04:10:37;100940.59;;;4.74;100.00
46347;BME280;32057;47.830;19.046;2024-02-21T04:13:02;100933.81;;;4.76;100.00
46347;BME280;32057;47.830;19.046;2024-02-21T04:15:28;100933.19;;;4.64;100.00
46347;BME280;32057;47.830;19.046;2024-02-21T04:17:53;100924.94;;;4.71;100.00
46347;BME280;32057;47.830;19.046;2024-02-21T04:20:18;100932.84;;;4.74;100.00
46347;BME280;32057;47.830;19.046;2024-02-21T04:22:43;100927.84;;;4.77;100.00
46347;BME280;32057;47.830;19.046;2024-02-21T04:25:12;100931.72;;;4.85;100.00
46347;BME280;32057;47.830;19.046;2024-02-21T04:27:38;100925.84;;;4.88;100.00
46347;BME280;32057;47.830;19.046;2024-02-21T04:30:04;100922.06;;;4.97;100.00
46347;BME280;32057;47.830;19.046;2024-02-21T04:32:30;100920.50;;;5.01;100.00
46347;BME280;32057;47.830;19.046;2024-02-21T04:34:55;100918.19;;;5.06;100.00
46347;BME280;32057;47.830;19.046;2024-02-21T04:37:21;100914.97;;;5.10;100.00
46347;BME280;32057;47.830;19.046;2024-02-21T04:39:48;100921.44;;;5.02;100.00
46347;BME280;32057;47.830;19.046;2024-02-21T04:42:14;100924.72;;;4.83;100.00
46347;BME280;32057;47.830;19.046;2024-02-21T04:44:39;100934.19;;;4.67;100.00
46347;BME280;32057;47.830;19.046;2024-02-21T04:47:04;100933.44;;;4.37;100.00
46347;BME280;32057;47.830;19.046;2024-02-21T04:49:30;100940.97;;;4.17;100.00
46347;BME280;32057;47.830;19.046;2024-02-21T04:51:55;100937.63;;;3.89;100.00
46347;BME280;32057;47.830;19.046;2024-02-21T04:54:21;100948.13;;;3.62;100.00
46347;BME280;32057;47.830;19.046;2024-02-21T04:56:46;100955.91;;;3.49;100.00
46347;BME280;32057;47.830;19.046;2024-02-21T04:59:11;100948.44;;;3.24;100.00
46347;BME280;32057;47.830;19.046;2024-02-21T05:01:36;100956.38;;;3.13;100.00
46347;BME280;32057;47.830;19.046;2024-02-21T05:04:02;100949.84;;;2.90;100.00
46347;BME280;32057;47.830;19.046;2024-02-21T05:06:28;100955.41;;;2.83;100.00
46347;BME280;32057;47.830;19.046;2024-02-21T05:08:53;100958.34;;;2.89;100.00
46347;BME280;32057;47.830;19.046;2024-02-21T05:11:23;100950.34;;;3.13;100.00
46347;BME280;32057;47.830;19.046;2024-02-21T05:13:48;100956.84;;;3.21;100.00
46347;BME280;32057;47.830;19.046;2024-02-21T05:16:14;100954.03;;;3.46;100.00
46347;BME280;32057;47.830;19.046;2024-02-21T05:18:40;100949.25;;;3.52;100.00
46347;BME280;32057;47.830;19.046;2024-02-21T05:21:05;100955.63;;;3.59;100.00
46347;BME280;32057;47.830;19.046;2024-02-21T05:23:31;100962.13;;;3.52;100.00
46347;BME280;32057;47.830;19.046;2024-02-21T05:25:56;100966.72;;;3.43;100.00
46347;BME280;32057;47.830;19.046;2024-02-21T05:28:21;100961.75;;;3.61;100.00
46347;BME280;32057;47.830;19.046;2024-02-21T05:30:47;100961.59;;;3.58;100.00
46347;BME280;32057;47.830;19.046;2024-02-21T05:33:12;100962.91;;;3.51;100.00
46347;BME280;32057;47.830;19.046;2024-02-21T05:35:38;100946.66;;;3.37;100.00
46347;BME280;32057;47.830;19.046;2024-02-21T05:38:03;100958.22;;;3.44;100.00
46347;BME280;32057;47.830;19.046;2024-02-21T05:40:36;100961.75;;;3.46;100.00
46347;BME280;32057;47.830;19.046;2024-02-21T05:43:02;100964.25;;;3.45;100.00
46347;BME280;32057;47.830;19.046;2024-02-21T05:45:27;100958.38;;;3.47;100.00
46347;BME280;32057;47.830;19.046;2024-02-21T05:47:52;100964.59;;;3.51;100.00
46347;BME280;32057;47.830;19.046;2024-02-21T05:50:17;100963.00;;;3.38;100.00
46347;BME280;32057;47.830;19.046;2024-02-21T05:52:43;100964.06;;;3.42;100.00
46347;BME280;32057;47.830;19.046;2024-02-21T05:55:08;100965.47;;;3.36;100.00
46347;BME280;32057;47.830;19.046;2024-02-21T05:57:36;100960.53;;;3.39;100.00
46347;BME280;32057;47.830;19.046;2024-02-21T06:00:06;100964.13;;;3.43;100.00
46347;BME280;32057;47.830;19.046;2024-02-21T06:02:31;100955.91;;;3.49;100.00
46347;BME280;32057;47.830;19.046;2024-02-21T06:04:56;100964.06;;;3.42;100.00
46347;BME280;32057;47.830;19.046;2024-02-21T06:07:22;100963.75;;;3.22;100.00
46347;BME280;32057;47.830;19.046;2024-02-21T06:09:47;100963.06;;;2.96;100.00
46347;BME280;32057;47.830;19.046;2024-02-21T06:12:12;100963.78;;;2.94;100.00
46347;BME280;32057;47.830;19.046;2024-02-21T06:14:38;100961.69;;;3.02;100.00
46347;BME280;32057;47.830;19.046;2024-02-21T06:17:03;100963.81;;;3.09;100.00
46347;BME280;32057;47.830;19.046;2024-02-21T06:19:28;100962.06;;;3.08;100.00
46347;BME280;32057;47.830;19.046;2024-02-21T06:21:54;100956.56;;;3.16;100.00
46347;BME280;32057;47.830;19.046;2024-02-21T06:24:19;100959.69;;;3.26;100.00
46347;BME280;32057;47.830;19.046;2024-02-21T06:26:44;100962.09;;;3.37;100.00
46347;BME280;32057;47.830;19.046;2024-02-21T06:29:11;100963.97;;;3.55;100.00
46347;BME280;32057;47.830;19.046;2024-02-21T06:31:36;100957.78;;;3.66;100.00
46347;BME280;32057;47.830;19.046;2024-02-21T06:34:02;100969.66;;;3.79;100.00
46347;BME280;32057;47.830;19.046;2024-02-21T06:36:27;100975.97;;;3.99;100.00
46347;BME280;32057;47.830;19.046;2024-02-21T06:38:53;100985.00;;;4.22;100.00
46347;BME280;32057;47.830;19.046;2024-02-21T06:41:18;100981.75;;;4.41;100.00
46347;BME280;32057;47.830;19.046;2024-02-21T06:43:48;100983.44;;;4.55;100.00
46347;BME280;32057;47.830;19.046;2024-02-21T06:46:24;100983.34;;;4.70;100.00
46347;BME280;32057;47.830;19.046;2024-02-21T06:48:50;100991.50;;;4.78;100.00
46347;BME280;32057;47.830;19.046;2024-02-21T06:51:15;100986.03;;;4.88;100.00
46347;BME280;32057;47.830;19.046;2024-02-21T06:53:41;100995.00;;;4.95;100.00
46347;BME280;32057;47.830;19.046;2024-02-21T06:56:06;100999.91;;;4.90;100.00
46347;BME280;32057;47.830;19.046;2024-02-21T06:58:32;100994.28;;;4.97;100.00
46347;BME280;32057;47.830;19.046;2024-02-21T07:00:57;100999.28;;;5.11;100.00
46347;BME280;32057;47.830;19.046;2024-02-21T07:03:22;101000.09;;;5.26;100.00
46347;BME280;32057;47.830;19.046;2024-02-21T07:05:49;101002.75;;;5.28;100.00
46347;BME280;32057;47.830;19.046;2024-02-21T07:08:15;101005.09;;;5.39;100.00
46347;BME280;32057;47.830;19.046;2024-02-21T07:10:40;101010.72;;;5.49;100.00
46347;BME280;32057;47.830;19.046;2024-02-21T07:13:06;101002.97;;;5.65;100.00
46347;BME280;32057;47.830;19.046;2024-02-21T07:15:31;101008.09;;;5.82;100.00
46347;BME280;32057;47.830;19.046;2024-02-21T07:17:57;101007.81;;;5.93;100.00
46347;BME280;32057;47.830;19.046;2024-02-21T07:20:22;100999.00;;;6.06;100.00
46347;BME280;32057;47.830;19.046;2024-02-21T07:22:47;101001.22;;;6.16;100.00
46347;BME280;32057;47.830;19.046;2024-02-21T07:25:13;101007.16;;;6.32;100.00
46347;BME280;32057;47.830;19.046;2024-02-21T07:27:38;100998.44;;;6.48;100.00
46347;BME280;32057;47.830;19.046;2024-02-21T07:30:05;101001.00;;;6.66;100.00
46347;BME280;32057;47.830;19.046;2024-02-21T07:32:31;101008.28;;;6.74;100.00
46347;BME280;32057;47.830;19.046;2024-02-21T07:34:56;101004.44;;;6.84;100.00
46347;BME280;32057;47.830;19.046;2024-02-21T07:37:21;101003.91;;;6.91;100.00
46347;BME280;32057;47.830;19.046;2024-02-21T07:39:47;101005.91;;;6.97;100.00
46347;BME280;32057;47.830;19.046;2024-02-21T07:42:12;100998.41;;;7.03;100.00
46347;BME280;32057;47.830;19.046;2024-02-21T07:44:37;101005.00;;;7.16;100.00
46347;BME280;32057;47.830;19.046;2024-02-21T07:47:03;100996.50;;;7.18;100.00
46347;BME280;32057;47.830;19.046;2024-02-21T07:49:28;101006.94;;;7.40;100.00
46347;BME280;32057;47.830;19.046;2024-02-21T07:51:53;100997.28;;;7.56;100.00
46347;BME280;32057;47.830;19.046;2024-02-21T07:54:19;100997.25;;;7.76;100.00
46347;BME280;32057;47.830;19.046;2024-02-21T07:56:44;100990.31;;;7.96;100.00
46347;BME280;32057;47.830;19.046;2024-02-21T07:59:09;100990.72;;;8.05;100.00
46347;BME280;32057;47.830;19.046;2024-02-21T08:01:35;100994.84;;;8.23;100.00
46347;BME280;32057;47.830;19.046;2024-02-21T08:04:00;100989.34;;;8.36;100.00
46347;BME280;32057;47.830;19.046;2024-02-21T08:06:25;100978.53;;;8.46;100.00
46347;BME280;32057;47.830;19.046;2024-02-21T08:08:51;100968.53;;;8.55;100.00
46347;BME280;32057;47.830;19.046;2024-02-21T08:11:16;100963.72;;;8.65;100.00
46347;BME280;32057;47.830;19.046;2024-02-21T08:13:41;100966.50;;;8.47;100.00
46347;BME280;32057;47.830;19.046;2024-02-21T08:16:06;100964.22;;;8.56;100.00
46347;BME280;32057;47.830;19.046;2024-02-21T08:18:32;100965.59;;;8.69;100.00
46347;BME280;32057;47.830;19.046;2024-02-21T08:21:01;100967.09;;;8.86;100.00
46347;BME280;32057;47.830;19.046;2024-02-21T08:23:26;100968.28;;;8.94;100.00
46347;BME280;32057;47.830;19.046;2024-02-21T08:25:51;100978.22;;;9.06;100.00
46347;BME280;32057;47.830;19.046;2024-02-21T08:28:17;100969.00;;;9.14;100.00
46347;BME280;32057;47.830;19.046;2024-02-21T08:30:42;100972.22;;;9.31;100.00
46347;BME280;32057;47.830;19.046;2024-02-21T08:33:14;100975.91;;;9.38;100.00
46347;BME280;32057;47.830;19.046;2024-02-21T08:35:39;100978.72;;;9.20;100.00
46347;BME280;32057;47.830;19.046;2024-02-21T08:38:04;100979.56;;;9.19;100.00
46347;BME280;32057;47.830;19.046;2024-02-21T08:40:30;100973.53;;;9.20;100.00
46347;BME280;32057;47.830;19.046;2024-02-21T08:42:55;100973.47;;;9.18;100.00
46347;BME280;32057;47.830;19.046;2024-02-21T08:45:20;100966.97;;;9.30;100.00
46347;BME280;32057;47.830;19.046;2024-02-21T08:47:46;100969.69;;;9.33;100.00
46347;BME280;32057;47.830;19.046;2024-02-21T08:50:11;100963.19;;;9.46;100.00
46347;BME280;32057;47.830;19.046;2024-02-21T08:52:36;100969.75;;;9.60;100.00
46347;BME280;32057;47.830;19.046;2024-02-21T08:55:02;100968.50;;;9.49;100.00
46347;BME280;32057;47.830;19.046;2024-02-21T08:57:27;100958.75;;;9.67;100.00
46347;BME280;32057;47.830;19.046;2024-02-21T08:59:53;100956.56;;;9.80;100.00
46347;BME280;32057;47.830;19.046;2024-02-21T09:02:18;100960.63;;;9.71;100.00
46347;BME280;32057;47.830;19.046;2024-02-21T09:04:44;100960.69;;;9.74;100.00
46347;BME280;32057;47.830;19.046;2024-02-21T09:07:10;100955.63;;;9.77;100.00
46347;BME280;32057;47.830;19.046;2024-02-21T09:09:35;100957.81;;;9.91;100.00
46347;BME280;32057;47.830;19.046;2024-02-21T09:12:01;100957.91;;;9.94;100.00
46347;BME280;32057;47.830;19.046;2024-02-21T09:14:31;100955.56;;;10.02;100.00
46347;BME280;32057;47.830;19.046;2024-02-21T09:16:56;100954.94;;;10.10;100.00
46347;BME280;32057;47.830;19.046;2024-02-21T09:19:22;100951.13;;;9.99;100.00
46347;BME280;32057;47.830;19.046;2024-02-21T09:21:47;100956.34;;;9.99;100.00
46347;BME280;32057;47.830;19.046;2024-02-21T09:24:12;100959.69;;;9.95;100.00
46347;BME280;32057;47.830;19.046;2024-02-21T09:26:38;100954.41;;;9.93;100.00
46347;BME280;32057;47.830;19.046;2024-02-21T09:29:03;100960.41;;;9.91;100.00
46347;BME280;32057;47.830;19.046;2024-02-21T09:31:29;100958.94;;;9.99;100.00
46347;BME280;32057;47.830;19.046;2024-02-21T09:33:54;100952.81;;;9.97;100.00
46347;BME280;32057;47.830;19.046;2024-02-21T09:36:19;100958.25;;;10.05;100.00
46347;BME280;32057;47.830;19.046;2024-02-21T09:38:46;100952.28;;;9.82;100.00
46347;BME280;32057;47.830;19.046;2024-02-21T09:41:24;100956.34;;;9.99;100.00
46347;BME280;32057;47.830;19.046;2024-02-21T09:43:50;100956.59;;;10.07;100.00
46347;BME280;32057;47.830;19.046;2024-02-21T09:46:19;100955.19;;;10.16;100.00
46347;BME280;32057;47.830;19.046;2024-02-21T09:49:11;100960.56;;;10.23;100.00
46347;BME280;32057;47.830;19.046;2024-02-21T09:51:38;100955.78;;;10.35;100.00
46347;BME280;32057;47.830;19.046;2024-02-21T09:54:07;100950.78;;;10.41;100.00
46347;BME280;32057;47.830;19.046;2024-02-21T09:56:32;100950.94;;;10.47;100.00
46347;BME280;32057;47.830;19.046;2024-02-21T09:58:58;100956.28;;;10.52;100.00
46347;BME280;32057;47.830;19.046;2024-02-21T10:01:23;100955.31;;;10.48;100.00
46347;BME280;32057;47.830;19.046;2024-02-21T10:03:49;100955.78;;;10.64;100.00
46347;BME280;32057;47.830;19.046;2024-02-21T10:06:16;100958.63;;;10.71;100.00
46347;BME280;32057;47.830;19.046;2024-02-21T10:08:41;100940.84;;;10.87;100.00
46347;BME280;32057;47.830;19.046;2024-02-21T10:11:06;100946.34;;;10.98;100.00
46347;BME280;32057;47.830;19.046;2024-02-21T10:13:34;100950.38;;;10.86;100.00
46347;BME280;32057;47.830;19.046;2024-02-21T10:16:08;100943.47;;;10.58;100.00
46347;BME280;32057;47.830;19.046;2024-02-21T10:18:34;100947.56;;;10.23;100.00
46347;BME280;32057;47.830;19.046;2024-02-21T10:21:04;100940.44;;;10.17;100.00
46347;BME280;32057;47.830;19.046;2024-02-21T10:23:43;100941.31;;;10.17;100.00
46347;BME280;32057;47.830;19.046;2024-02-21T10:26:09;100931.13;;;10.24;100.00
46347;BME280;32057;47.830;19.046;2024-02-21T10:28:35;100931.13;;;10.24;100.00
46347;BME280;32057;47.830;19.046;2024-02-21T10:31:00;100933.38;;;10.13;100.00
46347;BME280;32057;47.830;19.046;2024-02-21T10:33:25;100930.72;;;10.11;100.00
46347;BME280;32057;47.830;19.046;2024-02-21T10:35:53;100930.53;;;10.05;100.00
46347;BME280;32057;47.830;19.046;2024-02-21T10:38:18;100917.41;;;10.02;100.00
46347;BME280;32057;47.830;19.046;2024-02-21T10:40:46;100922.78;;;10.07;100.00
46347;BME280;32057;47.830;19.046;2024-02-21T10:43:12;100918.53;;;10.10;100.00
46347;BME280;32057;47.830;19.046;2024-02-21T10:45:39;100913.84;;;10.26;100.00
46347;BME280;32057;47.830;19.046;2024-02-21T10:48:13;100915.63;;;10.27;100.00
46347;BME280;32057;47.830;19.046;2024-02-21T10:50:56;100911.00;;;10.45;100.00
46347;BME280;32057;47.830;19.046;2024-02-21T10:56:14;100908.28;;;10.42;100.00
46347;BME280;32057;47.830;19.046;2024-02-21T10:58:42;100902.03;;;10.35;100.00
46347;BME280;32057;47.830;19.046;2024-02-21T11:01:09;100906.69;;;10.19;100.00
46347;BME280;32057;47.830;19.046;2024-02-21T11:03:35;100896.28;;;10.19;100.00
46347;BME280;32057;47.830;19.046;2024-02-21T11:06:02;100892.47;;;10.34;100.00
46347;BME280;32057;47.830;19.046;2024-02-21T11:08:28;100885.63;;;10.38;100.00
46347;BME280;32057;47.830;19.046;2024-02-21T11:10:57;100878.28;;;10.53;100.00
46347;BME280;32057;47.830;19.046;2024-02-21T11:13:36;100869.16;;;10.68;100.00
46347;BME280;32057;47.830;19.046;2024-02-21T11:16:11;100862.69;;;10.85;100.00
46347;BME280;32057;47.830;19.046;2024-02-21T11:18:37;100861.13;;;10.92;100.00
46347;BME280;32057;47.830;19.046;2024-02-21T11:21:03;100858.69;;;10.98;100.00
46347;BME280;32057;47.830;19.046;2024-02-21T11:23:30;100860.38;;;10.94;100.00
46347;BME280;32057;47.830;19.046;2024-02-21T11:26:08;100855.06;;;10.91;100.00
46347;BME280;32057;47.830;19.046;2024-02-21T11:28:35;100853.09;;;10.84;100.00
46347;BME280;32057;47.830;19.046;2024-02-21T11:31:12;100844.22;;;10.76;100.00
46347;BME280;32057;47.830;19.046;2024-02-21T11:33:41;100847.44;;;10.67;100.00
46347;BME280;32057;47.830;19.046;2024-02-21T11:36:10;100839.16;;;10.81;100.00
46347;BME280;32057;47.830;19.046;2024-02-21T11:38:36;100839.75;;;11.04;100.00
46347;BME280;32057;47.830;19.046;2024-02-21T11:41:02;100833.88;;;11.11;100.00
46347;BME280;32057;47.830;19.046;2024-02-21T11:43:28;100838.38;;;11.18;100.00
46347;BME280;32057;47.830;19.046;2024-02-21T11:46:00;100833.78;;;11.08;99.03
46347;BME280;32057;47.830;19.046;2024-02-21T11:48:26;100819.56;;;10.95;99.18
46347;BME280;32057;47.830;19.046;2024-02-21T11:50:53;100815.34;;;10.99;100.00
46347;BME280;32057;47.830;19.046;2024-02-21T11:53:20;100814.56;;;11.03;100.00
46347;BME280;32057;47.830;19.046;2024-02-21T11:55:46;100813.91;;;11.11;99.75
46347;BME280;32057;47.830;19.046;2024-02-21T11:58:11;100815.09;;;11.23;97.48
46347;BME280;32057;47.830;19.046;2024-02-21T12:00:36;100810.78;;;11.25;97.52
46347;BME280;32057;47.830;19.046;2024-02-21T12:03:02;100813.31;;;11.22;97.91
46347;BME280;32057;47.830;19.046;2024-02-21T12:05:29;100807.28;;;11.24;97.67
46347;BME280;32057;47.830;19.046;2024-02-21T12:07:54;100806.34;;;11.21;94.74
46347;BME280;32057;47.830;19.046;2024-02-21T12:10:20;100798.03;;;11.35;97.66
46347;BME280;32057;47.830;19.046;2024-02-21T12:12:45;100801.06;;;11.54;92.90
46347;BME280;32057;47.830;19.046;2024-02-21T12:15:10;100794.25;;;11.59;91.84
46347;BME280;32057;47.830;19.046;2024-02-21T12:17:36;100795.66;;;11.45;89.78
46347;BME280;32057;47.830;19.046;2024-02-21T12:20:03;100791.97;;;11.36;89.17
46347;BME280;32057;47.830;19.046;2024-02-21T12:22:43;100802.88;;;11.22;88.98
46347;BME280;32057;47.830;19.046;2024-02-21T12:25:22;100806.78;;;11.04;89.88
46347;BME280;32057;47.830;19.046;2024-02-21T12:27:53;100803.09;;;10.96;91.59
46347;BME280;32057;47.830;19.046;2024-02-21T12:30:19;100804.63;;;10.88;92.42
46347;BME280;32057;47.830;19.046;2024-02-21T12:32:47;100811.28;;;10.78;93.17
46347;BME280;32057;47.830;19.046;2024-02-21T12:35:13;100797.25;;;10.71;93.28
46347;BME280;32057;47.830;19.046;2024-02-21T12:37:39;100794.47;;;10.65;93.87
46347;BME280;32057;47.830;19.046;2024-02-21T12:40:05;100794.41;;;10.64;92.51